25MA weather

High School Heliport
Holliston, Massachusetts, United States

Public forecast

Using degrees Fahrenheit for public forecast. Weather courtesy of forecast.io.

METAR (pilot weather report)

Closest report is Norwood Memorial Airport, 12.0 nm (22.2 km) E. Retrieved 2019/09/19 16:53 UTC (1 hour ago):

KOWD 191653Z VRB03KT 10SM CLR 20/04 A3033 RMK AO2 SLP268 T02000039

TAF (pilot weather forecast)

Closest forecast is Laurence G Hanscom Field, 17.3 nm (32.0 km) NNE. Retrieved 2019/09/19 12:48 UTC (5 hours ago):

TAF KBED 191146Z 1912/2012 03005KT P6SM SKC